sensor_id;sensor_type;location;lat;lon;timestamp;P1;durP1;ratioP1;P2;durP2;ratioP2
20232;SDS011;37438;55.674;13.074;2023-04-24T00:01:25;41.92;;;24.23;;
20232;SDS011;37438;55.674;13.074;2023-04-24T00:04:30;32.50;;;22.98;;
20232;SDS011;37438;55.674;13.074;2023-04-24T00:07:36;34.75;;;22.60;;
20232;SDS011;37438;55.674;13.074;2023-04-24T00:10:40;39.87;;;25.17;;
20232;SDS011;37438;55.674;13.074;2023-04-24T00:16:50;40.35;;;25.05;;
20232;SDS011;37438;55.674;13.074;2023-04-24T00:19:54;36.43;;;23.63;;
20232;SDS011;37438;55.674;13.074;2023-04-24T00:23:06;36.55;;;24.38;;
20232;SDS011;37438;55.674;13.074;2023-04-24T00:26:10;41.03;;;24.83;;
20232;SDS011;37438;55.674;13.074;2023-04-24T00:29:15;37.90;;;23.27;;
20232;SDS011;37438;55.674;13.074;2023-04-24T00:32:19;35.80;;;25.15;;
20232;SDS011;37438;55.674;13.074;2023-04-24T00:35:25;39.53;;;25.02;;
20232;SDS011;37438;55.674;13.074;2023-04-24T00:38:29;36.25;;;24.83;;
20232;SDS011;37438;55.674;13.074;2023-04-24T00:41:34;42.22;;;26.15;;
20232;SDS011;37438;55.674;13.074;2023-04-24T00:44:38;35.20;;;23.73;;
20232;SDS011;37438;55.674;13.074;2023-04-24T00:47:43;28.35;;;18.35;;
20232;SDS011;37438;55.674;13.074;2023-04-24T00:50:49;40.08;;;25.52;;
20232;SDS011;37438;55.674;13.074;2023-04-24T00:53:53;38.28;;;25.98;;
20232;SDS011;37438;55.674;13.074;2023-04-24T00:56:58;38.03;;;24.85;;
20232;SDS011;37438;55.674;13.074;2023-04-24T01:00:03;38.75;;;24.88;;
20232;SDS011;37438;55.674;13.074;2023-04-24T01:03:09;36.67;;;24.13;;
20232;SDS011;37438;55.674;13.074;2023-04-24T01:06:15;35.60;;;24.92;;
20232;SDS011;37438;55.674;13.074;2023-04-24T01:09:20;39.97;;;24.83;;
20232;SDS011;37438;55.674;13.074;2023-04-24T01:20:09;43.10;;;26.08;;
20232;SDS011;37438;55.674;13.074;2023-04-24T01:23:14;40.58;;;23.88;;
20232;SDS011;37438;55.674;13.074;2023-04-24T01:26:20;41.05;;;27.42;;
20232;SDS011;37438;55.674;13.074;2023-04-24T01:29:25;42.88;;;26.80;;
20232;SDS011;37438;55.674;13.074;2023-04-24T01:32:29;43.22;;;28.40;;
20232;SDS011;37438;55.674;13.074;2023-04-24T01:35:34;33.50;;;20.13;;
20232;SDS011;37438;55.674;13.074;2023-04-24T01:38:39;43.10;;;26.42;;
20232;SDS011;37438;55.674;13.074;2023-04-24T01:41:44;38.70;;;25.27;;
20232;SDS011;37438;55.674;13.074;2023-04-24T01:44:49;39.85;;;26.55;;
20232;SDS011;37438;55.674;13.074;2023-04-24T01:47:54;46.60;;;27.75;;
20232;SDS011;37438;55.674;13.074;2023-04-24T01:51:00;41.58;;;25.55;;
20232;SDS011;37438;55.674;13.074;2023-04-24T01:54:06;44.15;;;24.48;;
20232;SDS011;37438;55.674;13.074;2023-04-24T01:57:11;40.58;;;23.08;;
20232;SDS011;37438;55.674;13.074;2023-04-24T02:00:17;33.92;;;21.85;;
20232;SDS011;37438;55.674;13.074;2023-04-24T02:03:22;34.75;;;23.48;;
20232;SDS011;37438;55.674;13.074;2023-04-24T02:06:27;40.10;;;25.00;;
20232;SDS011;37438;55.674;13.074;2023-04-24T02:09:32;36.58;;;22.73;;
20232;SDS011;37438;55.674;13.074;2023-04-24T02:12:36;35.63;;;23.13;;
20232;SDS011;37438;55.674;13.074;2023-04-24T02:15:40;34.55;;;22.92;;
20232;SDS011;37438;55.674;13.074;2023-04-24T02:18:45;44.35;;;25.67;;
20232;SDS011;37438;55.674;13.074;2023-04-24T02:21:49;40.85;;;24.45;;
20232;SDS011;37438;55.674;13.074;2023-04-24T02:24:54;37.53;;;23.15;;
20232;SDS011;37438;55.674;13.074;2023-04-24T02:27:59;36.55;;;23.65;;
20232;SDS011;37438;55.674;13.074;2023-04-24T02:31:03;35.57;;;24.07;;
20232;SDS011;37438;55.674;13.074;2023-04-24T02:34:09;39.95;;;25.38;;
20232;SDS011;37438;55.674;13.074;2023-04-24T02:37:13;35.28;;;23.77;;
20232;SDS011;37438;55.674;13.074;2023-04-24T02:40:19;35.67;;;24.52;;
20232;SDS011;37438;55.674;13.074;2023-04-24T02:43:23;37.33;;;24.27;;
20232;SDS011;37438;55.674;13.074;2023-04-24T02:46:28;36.67;;;22.33;;
20232;SDS011;37438;55.674;13.074;2023-04-24T02:49:32;36.10;;;23.08;;
20232;SDS011;37438;55.674;13.074;2023-04-24T02:52:37;32.00;;;21.23;;
20232;SDS011;37438;55.674;13.074;2023-04-24T02:55:42;22.42;;;14.93;;
20232;SDS011;37438;55.674;13.074;2023-04-24T02:58:46;26.70;;;18.52;;
20232;SDS011;37438;55.674;13.074;2023-04-24T03:01:50;30.10;;;17.73;;
20232;SDS011;37438;55.674;13.074;2023-04-24T03:04:55;24.27;;;17.20;;
20232;SDS011;37438;55.674;13.074;2023-04-24T03:08:01;26.75;;;19.20;;
20232;SDS011;37438;55.674;13.074;2023-04-24T03:11:05;22.23;;;15.73;;
20232;SDS011;37438;55.674;13.074;2023-04-24T03:14:09;28.63;;;17.27;;
20232;SDS011;37438;55.674;13.074;2023-04-24T03:17:14;20.58;;;15.00;;
20232;SDS011;37438;55.674;13.074;2023-04-24T03:20:19;22.67;;;15.45;;
20232;SDS011;37438;55.674;13.074;2023-04-24T03:23:24;23.40;;;14.93;;
20232;SDS011;37438;55.674;13.074;2023-04-24T03:26:28;23.50;;;15.15;;
20232;SDS011;37438;55.674;13.074;2023-04-24T03:29:49;28.80;;;17.10;;
20232;SDS011;37438;55.674;13.074;2023-04-24T03:33:03;25.95;;;16.38;;
20232;SDS011;37438;55.674;13.074;2023-04-24T03:36:12;22.70;;;14.77;;
20232;SDS011;37438;55.674;13.074;2023-04-24T03:42:28;27.27;;;16.40;;
20232;SDS011;37438;55.674;13.074;2023-04-24T03:45:33;36.33;;;17.63;;
20232;SDS011;37438;55.674;13.074;2023-04-24T03:48:37;30.40;;;17.40;;
20232;SDS011;37438;55.674;13.074;2023-04-24T03:51:43;25.83;;;17.05;;
20232;SDS011;37438;55.674;13.074;2023-04-24T03:54:58;30.43;;;17.23;;
20232;SDS011;37438;55.674;13.074;2023-04-24T03:58:04;25.10;;;16.60;;
20232;SDS011;37438;55.674;13.074;2023-04-24T04:01:08;27.75;;;16.95;;
20232;SDS011;37438;55.674;13.074;2023-04-24T04:04:28;23.63;;;15.35;;
20232;SDS011;37438;55.674;13.074;2023-04-24T04:10:38;25.30;;;17.13;;
20232;SDS011;37438;55.674;13.074;2023-04-24T04:13:42;27.25;;;16.73;;
20232;SDS011;37438;55.674;13.074;2023-04-24T04:19:52;29.77;;;18.60;;
20232;SDS011;37438;55.674;13.074;2023-04-24T04:22:56;31.02;;;19.63;;
20232;SDS011;37438;55.674;13.074;2023-04-24T04:26:12;29.63;;;19.70;;
20232;SDS011;37438;55.674;13.074;2023-04-24T04:29:33;32.10;;;19.63;;
20232;SDS011;37438;55.674;13.074;2023-04-24T04:32:40;34.65;;;21.58;;
20232;SDS011;37438;55.674;13.074;2023-04-24T04:35:45;31.05;;;20.13;;
20232;SDS011;37438;55.674;13.074;2023-04-24T04:38:52;28.88;;;20.00;;
20232;SDS011;37438;55.674;13.074;2023-04-24T04:42:16;30.77;;;19.85;;
20232;SDS011;37438;55.674;13.074;2023-04-24T04:45:22;32.13;;;20.15;;
20232;SDS011;37438;55.674;13.074;2023-04-24T04:48:46;35.53;;;22.08;;
20232;SDS011;37438;55.674;13.074;2023-04-24T04:51:51;30.35;;;19.00;;
20232;SDS011;37438;55.674;13.074;2023-04-24T04:54:56;33.45;;;20.38;;
20232;SDS011;37438;55.674;13.074;2023-04-24T04:58:09;31.42;;;20.33;;
20232;SDS011;37438;55.674;13.074;2023-04-24T05:01:14;34.60;;;19.52;;
20232;SDS011;37438;55.674;13.074;2023-04-24T05:04:22;32.78;;;20.23;;
20232;SDS011;37438;55.674;13.074;2023-04-24T05:10:32;28.90;;;18.10;;
20232;SDS011;37438;55.674;13.074;2023-04-24T05:13:38;29.67;;;18.42;;
20232;SDS011;37438;55.674;13.074;2023-04-24T05:17:10;26.92;;;18.65;;
20232;SDS011;37438;55.674;13.074;2023-04-24T05:20:15;28.90;;;19.58;;
20232;SDS011;37438;55.674;13.074;2023-04-24T05:23:21;27.17;;;18.63;;
20232;SDS011;37438;55.674;13.074;2023-04-24T05:26:28;28.25;;;18.65;;
20232;SDS011;37438;55.674;13.074;2023-04-24T05:29:35;28.73;;;20.17;;
20232;SDS011;37438;55.674;13.074;2023-04-24T05:32:41;26.20;;;17.50;;
20232;SDS011;37438;55.674;13.074;2023-04-24T05:35:45;28.73;;;18.63;;
20232;SDS011;37438;55.674;13.074;2023-04-24T05:38:51;27.15;;;17.75;;
20232;SDS011;37438;55.674;13.074;2023-04-24T05:41:55;24.48;;;15.77;;
20232;SDS011;37438;55.674;13.074;2023-04-24T05:45:02;21.67;;;16.10;;
20232;SDS011;37438;55.674;13.074;2023-04-24T05:48:06;20.08;;;13.43;;
20232;SDS011;37438;55.674;13.074;2023-04-24T05:54:16;16.52;;;10.85;;
20232;SDS011;37438;55.674;13.074;2023-04-24T05:57:20;18.35;;;12.00;;
20232;SDS011;37438;55.674;13.074;2023-04-24T06:00:36;16.27;;;10.30;;
20232;SDS011;37438;55.674;13.074;2023-04-24T06:03:44;17.48;;;11.52;;
20232;SDS011;37438;55.674;13.074;2023-04-24T06:09:55;15.20;;;9.90;;
20232;SDS011;37438;55.674;13.074;2023-04-24T06:13:01;11.02;;;8.43;;
20232;SDS011;37438;55.674;13.074;2023-04-24T06:16:07;7.47;;;5.25;;
20232;SDS011;37438;55.674;13.074;2023-04-24T06:19:15;10.82;;;6.97;;
20232;SDS011;37438;55.674;13.074;2023-04-24T06:22:20;13.52;;;8.20;;
20232;SDS011;37438;55.674;13.074;2023-04-24T06:25:25;7.63;;;5.30;;
20232;SDS011;37438;55.674;13.074;2023-04-24T06:28:30;7.43;;;6.05;;
20232;SDS011;37438;55.674;13.074;2023-04-24T06:31:35;6.75;;;5.03;;
20232;SDS011;37438;55.674;13.074;2023-04-24T06:34:41;9.65;;;5.85;;
20232;SDS011;37438;55.674;13.074;2023-04-24T06:37:46;6.82;;;3.88;;
20232;SDS011;37438;55.674;13.074;2023-04-24T06:40:50;5.43;;;3.78;;
20232;SDS011;37438;55.674;13.074;2023-04-24T06:43:55;8.68;;;3.25;;
20232;SDS011;37438;55.674;13.074;2023-04-24T06:46:59;5.60;;;3.72;;
20232;SDS011;37438;55.674;13.074;2023-04-24T06:50:04;3.38;;;2.63;;
20232;SDS011;37438;55.674;13.074;2023-04-24T06:56:15;3.38;;;2.50;;
20232;SDS011;37438;55.674;13.074;2023-04-24T06:59:19;4.82;;;2.75;;
20232;SDS011;37438;55.674;13.074;2023-04-24T07:02:24;2.85;;;2.38;;
20232;SDS011;37438;55.674;13.074;2023-04-24T07:08:33;1.93;;;1.70;;
20232;SDS011;37438;55.674;13.074;2023-04-24T07:11:38;4.32;;;2.75;;
20232;SDS011;37438;55.674;13.074;2023-04-24T07:14:44;3.25;;;2.92;;
20232;SDS011;37438;55.674;13.074;2023-04-24T07:17:49;10.45;;;4.13;;
20232;SDS011;37438;55.674;13.074;2023-04-24T07:20:53;2.40;;;2.20;;
20232;SDS011;37438;55.674;13.074;2023-04-24T07:23:58;2.95;;;2.03;;
20232;SDS011;37438;55.674;13.074;2023-04-24T07:27:03;3.20;;;2.40;;
20232;SDS011;37438;55.674;13.074;2023-04-24T07:30:08;1.98;;;1.83;;
20232;SDS011;37438;55.674;13.074;2023-04-24T07:33:13;7.15;;;2.58;;
20232;SDS011;37438;55.674;13.074;2023-04-24T07:39:23;2.75;;;2.55;;
20232;SDS011;37438;55.674;13.074;2023-04-24T07:42:27;2.58;;;2.38;;
20232;SDS011;37438;55.674;13.074;2023-04-24T07:45:34;6.90;;;2.72;;
20232;SDS011;37438;55.674;13.074;2023-04-24T07:48:41;3.30;;;2.60;;
20232;SDS011;37438;55.674;13.074;2023-04-24T07:51:45;1.83;;;1.73;;
20232;SDS011;37438;55.674;13.074;2023-04-24T07:54:50;2.17;;;1.98;;
20232;SDS011;37438;55.674;13.074;2023-04-24T07:57:56;6.13;;;2.38;;
20232;SDS011;37438;55.674;13.074;2023-04-24T08:01:01;5.50;;;2.85;;
20232;SDS011;37438;55.674;13.074;2023-04-24T08:04:05;6.43;;;2.70;;
20232;SDS011;37438;55.674;13.074;2023-04-24T08:07:10;3.25;;;2.67;;
20232;SDS011;37438;55.674;13.074;2023-04-24T08:10:16;4.70;;;3.28;;
20232;SDS011;37438;55.674;13.074;2023-04-24T08:13:21;4.20;;;2.58;;
20232;SDS011;37438;55.674;13.074;2023-04-24T08:16:26;4.63;;;3.60;;
20232;SDS011;37438;55.674;13.074;2023-04-24T08:22:35;4.38;;;3.28;;
20232;SDS011;37438;55.674;13.074;2023-04-24T08:25:40;4.18;;;3.70;;
20232;SDS011;37438;55.674;13.074;2023-04-24T08:28:44;4.03;;;3.40;;
20232;SDS011;37438;55.674;13.074;2023-04-24T08:31:49;5.57;;;3.05;;
20232;SDS011;37438;55.674;13.074;2023-04-24T08:34:54;6.22;;;3.50;;
20232;SDS011;37438;55.674;13.074;2023-04-24T08:37:59;5.22;;;3.40;;
20232;SDS011;37438;55.674;13.074;2023-04-24T08:41:04;4.88;;;3.95;;
20232;SDS011;37438;55.674;13.074;2023-04-24T08:44:11;4.43;;;3.55;;
20232;SDS011;37438;55.674;13.074;2023-04-24T08:47:20;5.13;;;3.30;;
20232;SDS011;37438;55.674;13.074;2023-04-24T08:50:26;2.92;;;2.72;;
20232;SDS011;37438;55.674;13.074;2023-04-24T08:53:30;6.28;;;3.15;;
20232;SDS011;37438;55.674;13.074;2023-04-24T08:56:36;3.97;;;2.40;;
20232;SDS011;37438;55.674;13.074;2023-04-24T08:59:43;2.70;;;2.25;;
20232;SDS011;37438;55.674;13.074;2023-04-24T09:02:49;7.47;;;3.25;;
20232;SDS011;37438;55.674;13.074;2023-04-24T09:05:57;3.53;;;2.47;;
20232;SDS011;37438;55.674;13.074;2023-04-24T09:09:02;2.72;;;2.38;;
20232;SDS011;37438;55.674;13.074;2023-04-24T09:12:07;4.68;;;1.88;;
20232;SDS011;37438;55.674;13.074;2023-04-24T09:15:13;2.85;;;2.60;;
20232;SDS011;37438;55.674;13.074;2023-04-24T09:18:19;4.35;;;2.75;;
20232;SDS011;37438;55.674;13.074;2023-04-24T09:24:35;2.25;;;2.05;;
20232;SDS011;37438;55.674;13.074;2023-04-24T09:30:54;3.25;;;2.35;;
20232;SDS011;37438;55.674;13.074;2023-04-24T09:34:26;3.72;;;2.22;;
20232;SDS011;37438;55.674;13.074;2023-04-24T09:40:39;1.88;;;1.77;;
20232;SDS011;37438;55.674;13.074;2023-04-24T09:43:44;3.33;;;1.70;;
20232;SDS011;37438;55.674;13.074;2023-04-24T09:46:50;4.60;;;1.67;;
20232;SDS011;37438;55.674;13.074;2023-04-24T09:49:57;2.55;;;2.35;;
20232;SDS011;37438;55.674;13.074;2023-04-24T09:53:03;2.72;;;2.15;;
20232;SDS011;37438;55.674;13.074;2023-04-24T09:56:09;4.20;;;2.00;;
20232;SDS011;37438;55.674;13.074;2023-04-24T09:59:17;2.10;;;1.92;;
20232;SDS011;37438;55.674;13.074;2023-04-24T10:02:22;2.28;;;2.08;;
20232;SDS011;37438;55.674;13.074;2023-04-24T10:05:31;2.30;;;1.30;;
20232;SDS011;37438;55.674;13.074;2023-04-24T10:08:36;3.90;;;1.80;;
20232;SDS011;37438;55.674;13.074;2023-04-24T10:14:50;2.63;;;1.70;;
20232;SDS011;37438;55.674;13.074;2023-04-24T10:17:54;2.90;;;1.73;;
20232;SDS011;37438;55.674;13.074;2023-04-24T10:21:02;2.03;;;1.83;;
20232;SDS011;37438;55.674;13.074;2023-04-24T10:24:07;3.53;;;2.60;;
20232;SDS011;37438;55.674;13.074;2023-04-24T10:30:18;1.60;;;1.50;;
20232;SDS011;37438;55.674;13.074;2023-04-24T10:33:23;3.25;;;2.22;;
20232;SDS011;37438;55.674;13.074;2023-04-24T10:36:29;3.03;;;2.33;;
20232;SDS011;37438;55.674;13.074;2023-04-24T10:39:36;3.50;;;2.67;;
20232;SDS011;37438;55.674;13.074;2023-04-24T10:42:41;3.80;;;2.53;;
20232;SDS011;37438;55.674;13.074;2023-04-24T10:46:03;2.85;;;2.13;;
20232;SDS011;37438;55.674;13.074;2023-04-24T10:49:09;3.05;;;2.45;;
20232;SDS011;37438;55.674;13.074;2023-04-24T10:52:14;6.85;;;2.78;;
20232;SDS011;37438;55.674;13.074;2023-04-24T10:58:53;5.35;;;2.88;;
20232;SDS011;37438;55.674;13.074;2023-04-24T11:01:57;6.25;;;2.58;;
20232;SDS011;37438;55.674;13.074;2023-04-24T11:05:05;2.55;;;2.35;;
20232;SDS011;37438;55.674;13.074;2023-04-24T11:08:14;5.25;;;3.80;;
20232;SDS011;37438;55.674;13.074;2023-04-24T11:11:20;4.30;;;2.92;;
20232;SDS011;37438;55.674;13.074;2023-04-24T11:14:25;4.57;;;3.10;;
20232;SDS011;37438;55.674;13.074;2023-04-24T11:20:45;6.35;;;3.88;;
20232;SDS011;37438;55.674;13.074;2023-04-24T11:23:50;6.32;;;3.50;;
20232;SDS011;37438;55.674;13.074;2023-04-24T11:26:59;4.35;;;3.95;;
20232;SDS011;37438;55.674;13.074;2023-04-24T11:30:08;8.30;;;3.92;;
20232;SDS011;37438;55.674;13.074;2023-04-24T11:33:14;5.55;;;3.83;;
20232;SDS011;37438;55.674;13.074;2023-04-24T11:36:24;4.38;;;3.67;;
20232;SDS011;37438;55.674;13.074;2023-04-24T11:39:35;6.15;;;3.67;;
20232;SDS011;37438;55.674;13.074;2023-04-24T11:42:41;5.45;;;3.78;;
20232;SDS011;37438;55.674;13.074;2023-04-24T11:45:50;8.32;;;4.40;;
20232;SDS011;37438;55.674;13.074;2023-04-24T11:48:56;5.53;;;4.25;;
20232;SDS011;37438;55.674;13.074;2023-04-24T11:52:00;3.75;;;3.40;;
20232;SDS011;37438;55.674;13.074;2023-04-24T11:58:20;4.43;;;4.03;;
20232;SDS011;37438;55.674;13.074;2023-04-24T12:01:26;4.68;;;4.15;;
20232;SDS011;37438;55.674;13.074;2023-04-24T12:04:38;3.65;;;3.35;;
20232;SDS011;37438;55.674;13.074;2023-04-24T12:07:44;5.05;;;4.38;;
20232;SDS011;37438;55.674;13.074;2023-04-24T12:10:50;4.72;;;4.15;;
20232;SDS011;37438;55.674;13.074;2023-04-24T12:13:55;5.68;;;3.60;;
20232;SDS011;37438;55.674;13.074;2023-04-24T12:17:00;3.65;;;3.22;;
20232;SDS011;37438;55.674;13.074;2023-04-24T12:20:07;5.93;;;3.80;;
20232;SDS011;37438;55.674;13.074;2023-04-24T12:23:12;4.03;;;3.58;;
20232;SDS011;37438;55.674;13.074;2023-04-24T12:29:23;6.40;;;4.10;;
20232;SDS011;37438;55.674;13.074;2023-04-24T12:32:28;3.97;;;3.60;;
20232;SDS011;37438;55.674;13.074;2023-04-24T12:35:33;4.07;;;3.20;;
20232;SDS011;37438;55.674;13.074;2023-04-24T12:38:43;4.70;;;3.45;;
20232;SDS011;37438;55.674;13.074;2023-04-24T12:41:55;4.18;;;3.70;;
20232;SDS011;37438;55.674;13.074;2023-04-24T12:45:06;4.82;;;4.35;;
20232;SDS011;37438;55.674;13.074;2023-04-24T12:48:11;5.05;;;3.13;;
20232;SDS011;37438;55.674;13.074;2023-04-24T12:51:17;3.95;;;3.63;;
20232;SDS011;37438;55.674;13.074;2023-04-24T12:54:22;1.80;;;1.70;;
20232;SDS011;37438;55.674;13.074;2023-04-24T12:57:28;0.90;;;0.90;;
20232;SDS011;37438;55.674;13.074;2023-04-24T13:00:34;1.20;;;1.08;;
20232;SDS011;37438;55.674;13.074;2023-04-24T13:10:05;1.95;;;1.02;;
20232;SDS011;37438;55.674;13.074;2023-04-24T13:13:10;1.42;;;1.33;;
20232;SDS011;37438;55.674;13.074;2023-04-24T13:16:15;1.40;;;1.20;;
20232;SDS011;37438;55.674;13.074;2023-04-24T13:19:20;2.00;;;1.15;;
20232;SDS011;37438;55.674;13.074;2023-04-24T13:22:25;0.95;;;0.95;;
20232;SDS011;37438;55.674;13.074;2023-04-24T13:25:34;1.38;;;1.20;;
20232;SDS011;37438;55.674;13.074;2023-04-24T13:28:39;1.05;;;0.95;;
20232;SDS011;37438;55.674;13.074;2023-04-24T13:31:43;0.82;;;0.82;;
20232;SDS011;37438;55.674;13.074;2023-04-24T13:34:48;1.58;;;1.10;;
20232;SDS011;37438;55.674;13.074;2023-04-24T13:37:53;0.88;;;0.70;;
20232;SDS011;37438;55.674;13.074;2023-04-24T13:40:58;2.80;;;1.73;;
20232;SDS011;37438;55.674;13.074;2023-04-24T13:44:03;1.50;;;1.40;;
20232;SDS011;37438;55.674;13.074;2023-04-24T13:47:08;1.60;;;1.50;;
20232;SDS011;37438;55.674;13.074;2023-04-24T13:50:13;1.42;;;1.15;;
20232;SDS011;37438;55.674;13.074;2023-04-24T13:53:17;1.48;;;1.13;;
20232;SDS011;37438;55.674;13.074;2023-04-24T13:56:22;1.60;;;1.42;;
20232;SDS011;37438;55.674;13.074;2023-04-24T13:59:26;1.58;;;1.48;;
20232;SDS011;37438;55.674;13.074;2023-04-24T14:05:41;1.60;;;1.50;;
20232;SDS011;37438;55.674;13.074;2023-04-24T14:08:51;1.83;;;1.73;;
20232;SDS011;37438;55.674;13.074;2023-04-24T14:11:56;1.02;;;1.02;;
20232;SDS011;37438;55.674;13.074;2023-04-24T14:15:01;7.80;;;1.40;;
20232;SDS011;37438;55.674;13.074;2023-04-24T14:18:05;1.83;;;1.73;;
20232;SDS011;37438;55.674;13.074;2023-04-24T14:21:09;2.00;;;1.45;;
20232;SDS011;37438;55.674;13.074;2023-04-24T14:27:18;2.05;;;0.82;;
20232;SDS011;37438;55.674;13.074;2023-04-24T14:30:23;0.98;;;0.93;;
20232;SDS011;37438;55.674;13.074;2023-04-24T14:36:32;1.50;;;0.85;;
20232;SDS011;37438;55.674;13.074;2023-04-24T14:39:36;1.42;;;0.55;;
20232;SDS011;37438;55.674;13.074;2023-04-24T14:42:40;1.63;;;1.10;;
20232;SDS011;37438;55.674;13.074;2023-04-24T14:45:45;0.60;;;0.60;;
20232;SDS011;37438;55.674;13.074;2023-04-24T14:48:49;1.98;;;1.08;;
20232;SDS011;37438;55.674;13.074;2023-04-24T14:54:58;1.17;;;0.80;;
20232;SDS011;37438;55.674;13.074;2023-04-24T15:01:07;4.57;;;0.80;;
20232;SDS011;37438;55.674;13.074;2023-04-24T15:04:12;2.47;;;0.50;;
20232;SDS011;37438;55.674;13.074;2023-04-24T15:10:20;0.77;;;0.60;;
20232;SDS011;37438;55.674;13.074;2023-04-24T15:13:26;1.48;;;0.80;;
20232;SDS011;37438;55.674;13.074;2023-04-24T15:19:36;0.70;;;0.70;;
20232;SDS011;37438;55.674;13.074;2023-04-24T15:22:40;0.65;;;0.65;;
20232;SDS011;37438;55.674;13.074;2023-04-24T15:25:44;1.08;;;0.82;;
20232;SDS011;37438;55.674;13.074;2023-04-24T15:31:53;1.63;;;0.85;;
20232;SDS011;37438;55.674;13.074;2023-04-24T15:34:58;0.82;;;0.82;;
20232;SDS011;37438;55.674;13.074;2023-04-24T15:38:12;3.92;;;1.27;;
20232;SDS011;37438;55.674;13.074;2023-04-24T15:41:17;4.32;;;0.80;;
20232;SDS011;37438;55.674;13.074;2023-04-24T15:44:22;2.33;;;0.50;;
20232;SDS011;37438;55.674;13.074;2023-04-24T15:47:26;0.82;;;0.60;;
20232;SDS011;37438;55.674;13.074;2023-04-24T15:50:31;1.08;;;0.77;;
20232;SDS011;37438;55.674;13.074;2023-04-24T15:53:35;2.75;;;0.43;;
20232;SDS011;37438;55.674;13.074;2023-04-24T15:56:40;2.17;;;1.02;;
20232;SDS011;37438;55.674;13.074;2023-04-24T15:59:45;0.80;;;0.80;;
20232;SDS011;37438;55.674;13.074;2023-04-24T16:02:49;2.05;;;1.00;;
20232;SDS011;37438;55.674;13.074;2023-04-24T16:05:54;0.70;;;0.70;;
20232;SDS011;37438;55.674;13.074;2023-04-24T16:08:59;2.60;;;0.80;;
20232;SDS011;37438;55.674;13.074;2023-04-24T16:12:06;1.48;;;0.90;;
20232;SDS011;37438;55.674;13.074;2023-04-24T16:15:13;0.90;;;0.90;;
20232;SDS011;37438;55.674;13.074;2023-04-24T16:18:18;1.60;;;0.90;;
20232;SDS011;37438;55.674;13.074;2023-04-24T16:24:27;1.83;;;1.23;;
20232;SDS011;37438;55.674;13.074;2023-04-24T16:27:32;1.55;;;0.70;;
20232;SDS011;37438;55.674;13.074;2023-04-24T16:30:36;1.10;;;1.10;;
20232;SDS011;37438;55.674;13.074;2023-04-24T16:33:42;0.82;;;0.82;;
20232;SDS011;37438;55.674;13.074;2023-04-24T16:36:47;2.35;;;1.55;;
20232;SDS011;37438;55.674;13.074;2023-04-24T16:39:52;1.42;;;1.05;;
20232;SDS011;37438;55.674;13.074;2023-04-24T16:42:58;1.17;;;0.88;;
20232;SDS011;37438;55.674;13.074;2023-04-24T16:46:02;3.85;;;1.00;;
20232;SDS011;37438;55.674;13.074;2023-04-24T16:49:07;2.22;;;1.65;;
20232;SDS011;37438;55.674;13.074;2023-04-24T16:52:12;2.60;;;1.40;;
20232;SDS011;37438;55.674;13.074;2023-04-24T16:55:16;1.58;;;1.35;;
20232;SDS011;37438;55.674;13.074;2023-04-24T16:58:20;1.40;;;1.30;;
20232;SDS011;37438;55.674;13.074;2023-04-24T17:01:25;2.25;;;1.42;;
20232;SDS011;37438;55.674;13.074;2023-04-24T17:04:30;2.08;;;1.98;;
20232;SDS011;37438;55.674;13.074;2023-04-24T17:07:39;2.15;;;1.95;;
20232;SDS011;37438;55.674;13.074;2023-04-24T17:10:44;10.38;;;3.60;;
20232;SDS011;37438;55.674;13.074;2023-04-24T17:13:48;4.32;;;3.75;;
20232;SDS011;37438;55.674;13.074;2023-04-24T17:16:52;5.30;;;4.80;;
20232;SDS011;37438;55.674;13.074;2023-04-24T17:19:57;6.20;;;5.30;;
20232;SDS011;37438;55.674;13.074;2023-04-24T17:23:06;8.38;;;7.57;;
20232;SDS011;37438;55.674;13.074;2023-04-24T17:26:15;8.95;;;8.05;;
20232;SDS011;37438;55.674;13.074;2023-04-24T17:29:19;6.78;;;5.18;;
20232;SDS011;37438;55.674;13.074;2023-04-24T17:32:23;10.57;;;8.93;;
20232;SDS011;37438;55.674;13.074;2023-04-24T17:38:32;11.63;;;8.20;;
20232;SDS011;37438;55.674;13.074;2023-04-24T17:41:37;10.48;;;8.63;;
20232;SDS011;37438;55.674;13.074;2023-04-24T17:44:41;12.48;;;9.25;;
20232;SDS011;37438;55.674;13.074;2023-04-24T17:50:51;7.93;;;6.97;;
20232;SDS011;37438;55.674;13.074;2023-04-24T17:53:56;9.93;;;7.28;;
20232;SDS011;37438;55.674;13.074;2023-04-24T17:57:00;8.15;;;7.18;;
20232;SDS011;37438;55.674;13.074;2023-04-24T18:00:06;10.13;;;7.97;;
20232;SDS011;37438;55.674;13.074;2023-04-24T18:03:10;11.07;;;7.15;;
20232;SDS011;37438;55.674;13.074;2023-04-24T18:06:15;11.10;;;6.63;;
20232;SDS011;37438;55.674;13.074;2023-04-24T18:09:21;8.73;;;7.25;;
20232;SDS011;37438;55.674;13.074;2023-04-24T18:12:26;9.38;;;6.60;;
20232;SDS011;37438;55.674;13.074;2023-04-24T18:15:30;6.70;;;5.88;;
20232;SDS011;37438;55.674;13.074;2023-04-24T18:18:35;8.88;;;7.95;;
20232;SDS011;37438;55.674;13.074;2023-04-24T18:24:45;8.50;;;6.63;;
20232;SDS011;37438;55.674;13.074;2023-04-24T18:27:51;11.20;;;9.25;;
20232;SDS011;37438;55.674;13.074;2023-04-24T18:30:59;8.35;;;7.53;;
20232;SDS011;37438;55.674;13.074;2023-04-24T18:34:04;9.32;;;7.53;;
20232;SDS011;37438;55.674;13.074;2023-04-24T18:37:09;10.48;;;7.72;;
20232;SDS011;37438;55.674;13.074;2023-04-24T18:40:14;7.85;;;7.07;;
20232;SDS011;37438;55.674;13.074;2023-04-24T18:43:19;8.52;;;7.22;;
20232;SDS011;37438;55.674;13.074;2023-04-24T18:46:23;8.18;;;7.07;;
20232;SDS011;37438;55.674;13.074;2023-04-24T18:49:29;11.25;;;8.15;;
20232;SDS011;37438;55.674;13.074;2023-04-24T18:52:33;8.98;;;7.97;;
20232;SDS011;37438;55.674;13.074;2023-04-24T18:55:38;9.93;;;8.32;;
20232;SDS011;37438;55.674;13.074;2023-04-24T18:58:42;9.65;;;8.05;;
20232;SDS011;37438;55.674;13.074;2023-04-24T19:01:48;10.75;;;8.77;;
20232;SDS011;37438;55.674;13.074;2023-04-24T19:04:53;9.68;;;8.65;;
20232;SDS011;37438;55.674;13.074;2023-04-24T19:07:57;13.70;;;8.63;;
20232;SDS011;37438;55.674;13.074;2023-04-24T19:11:03;10.35;;;8.10;;
20232;SDS011;37438;55.674;13.074;2023-04-24T19:14:08;8.50;;;7.60;;
20232;SDS011;37438;55.674;13.074;2023-04-24T19:17:13;10.35;;;9.20;;
20232;SDS011;37438;55.674;13.074;2023-04-24T19:20:21;11.60;;;8.30;;
20232;SDS011;37438;55.674;13.074;2023-04-24T19:23:25;7.57;;;6.68;;
20232;SDS011;37438;55.674;13.074;2023-04-24T19:26:30;9.80;;;8.20;;
20232;SDS011;37438;55.674;13.074;2023-04-24T19:29:34;13.93;;;9.30;;
20232;SDS011;37438;55.674;13.074;2023-04-24T19:35:44;10.23;;;8.05;;
20232;SDS011;37438;55.674;13.074;2023-04-24T19:38:48;8.38;;;7.55;;
20232;SDS011;37438;55.674;13.074;2023-04-24T19:41:54;10.48;;;8.77;;
20232;SDS011;37438;55.674;13.074;2023-04-24T19:45:00;10.30;;;8.52;;
20232;SDS011;37438;55.674;13.074;2023-04-24T19:48:04;12.05;;;9.05;;
20232;SDS011;37438;55.674;13.074;2023-04-24T19:54:13;13.05;;;9.10;;
20232;SDS011;37438;55.674;13.074;2023-04-24T19:57:18;12.70;;;9.52;;
20232;SDS011;37438;55.674;13.074;2023-04-24T20:00:23;12.55;;;9.65;;
20232;SDS011;37438;55.674;13.074;2023-04-24T20:03:27;11.85;;;9.10;;
20232;SDS011;37438;55.674;13.074;2023-04-24T20:06:37;9.95;;;8.73;;
20232;SDS011;37438;55.674;13.074;2023-04-24T20:09:42;14.48;;;9.80;;
20232;SDS011;37438;55.674;13.074;2023-04-24T20:12:46;11.27;;;9.25;;